sensor_id;sensor_type;location;lat;lon;timestamp;P1;durP1;ratioP1;P2;durP2;ratioP2
72920;SDS011;61064;51.654;5.476;2022-11-15T00:01:07;36.73;;;13.40;;
72920;SDS011;61064;51.654;5.476;2022-11-15T00:03:39;31.48;;;12.80;;
72920;SDS011;61064;51.654;5.476;2022-11-15T00:06:05;32.03;;;13.37;;
72920;SDS011;61064;51.654;5.476;2022-11-15T00:08:30;32.63;;;13.03;;
72920;SDS011;61064;51.654;5.476;2022-11-15T00:10:58;36.87;;;13.03;;
72920;SDS011;61064;51.654;5.476;2022-11-15T00:13:24;30.67;;;13.10;;
72920;SDS011;61064;51.654;5.476;2022-11-15T00:15:50;33.50;;;13.50;;
72920;SDS011;61064;51.654;5.476;2022-11-15T00:18:16;33.50;;;12.97;;
72920;SDS011;61064;51.654;5.476;2022-11-15T00:20:42;31.08;;;12.98;;
72920;SDS011;61064;51.654;5.476;2022-11-15T00:23:07;30.67;;;12.67;;
72920;SDS011;61064;51.654;5.476;2022-11-15T00:25:33;33.58;;;13.20;;
72920;SDS011;61064;51.654;5.476;2022-11-15T00:27:59;33.83;;;13.53;;
72920;SDS011;61064;51.654;5.476;2022-11-15T00:30:25;33.00;;;13.30;;
72920;SDS011;61064;51.654;5.476;2022-11-15T00:32:51;36.40;;;13.40;;
72920;SDS011;61064;51.654;5.476;2022-11-15T00:35:17;31.43;;;12.90;;
72920;SDS011;61064;51.654;5.476;2022-11-15T00:37:43;36.30;;;13.05;;
72920;SDS011;61064;51.654;5.476;2022-11-15T00:40:09;34.37;;;12.47;;
72920;SDS011;61064;51.654;5.476;2022-11-15T00:42:37;30.63;;;12.32;;
72920;SDS011;61064;51.654;5.476;2022-11-15T00:45:03;29.80;;;12.90;;
72920;SDS011;61064;51.654;5.476;2022-11-15T00:47:28;32.50;;;13.07;;
72920;SDS011;61064;51.654;5.476;2022-11-15T00:49:54;31.73;;;12.88;;
72920;SDS011;61064;51.654;5.476;2022-11-15T00:52:19;27.97;;;12.00;;
72920;SDS011;61064;51.654;5.476;2022-11-15T00:54:45;28.10;;;12.53;;
72920;SDS011;61064;51.654;5.476;2022-11-15T00:57:10;26.90;;;11.90;;
72920;SDS011;61064;51.654;5.476;2022-11-15T00:59:35;27.43;;;12.27;;
72920;SDS011;61064;51.654;5.476;2022-11-15T01:02:01;29.65;;;12.23;;
72920;SDS011;61064;51.654;5.476;2022-11-15T01:04:27;29.97;;;12.10;;
72920;SDS011;61064;51.654;5.476;2022-11-15T01:06:52;27.97;;;12.60;;
72920;SDS011;61064;51.654;5.476;2022-11-15T01:09:18;29.73;;;12.27;;
72920;SDS011;61064;51.654;5.476;2022-11-15T01:11:44;27.42;;;11.68;;
72920;SDS011;61064;51.654;5.476;2022-11-15T01:14:09;28.00;;;12.23;;
72920;SDS011;61064;51.654;5.476;2022-11-15T01:16:35;23.80;;;11.70;;
72920;SDS011;61064;51.654;5.476;2022-11-15T01:19:00;24.63;;;11.40;;
72920;SDS011;61064;51.654;5.476;2022-11-15T01:21:25;27.52;;;12.10;;
72920;SDS011;61064;51.654;5.476;2022-11-15T01:23:57;24.03;;;11.63;;
72920;SDS011;61064;51.654;5.476;2022-11-15T01:26:23;27.05;;;12.18;;
72920;SDS011;61064;51.654;5.476;2022-11-15T01:28:49;24.73;;;11.97;;
72920;SDS011;61064;51.654;5.476;2022-11-15T01:31:17;25.88;;;12.07;;
72920;SDS011;61064;51.654;5.476;2022-11-15T01:33:45;27.98;;;12.02;;
72920;SDS011;61064;51.654;5.476;2022-11-15T01:36:18;24.80;;;12.68;;
72920;SDS011;61064;51.654;5.476;2022-11-15T01:38:55;26.15;;;12.55;;
72920;SDS011;61064;51.654;5.476;2022-11-15T01:41:24;27.20;;;11.83;;
72920;SDS011;61064;51.654;5.476;2022-11-15T01:43:52;24.10;;;11.55;;
72920;SDS011;61064;51.654;5.476;2022-11-15T01:46:29;26.10;;;12.05;;
72920;SDS011;61064;51.654;5.476;2022-11-15T01:48:59;26.20;;;11.60;;
72920;SDS011;61064;51.654;5.476;2022-11-15T01:51:28;24.55;;;12.20;;
72920;SDS011;61064;51.654;5.476;2022-11-15T01:54:00;26.47;;;11.57;;
72920;SDS011;61064;51.654;5.476;2022-11-15T01:56:31;26.63;;;12.38;;
72920;SDS011;61064;51.654;5.476;2022-11-15T01:59:02;24.10;;;11.02;;
72920;SDS011;61064;51.654;5.476;2022-11-15T02:01:29;26.13;;;11.73;;
72920;SDS011;61064;51.654;5.476;2022-11-15T02:04:01;27.55;;;11.85;;
72920;SDS011;61064;51.654;5.476;2022-11-15T02:06:31;27.43;;;12.00;;
72920;SDS011;61064;51.654;5.476;2022-11-15T02:08:57;24.23;;;11.90;;
72920;SDS011;61064;51.654;5.476;2022-11-15T02:11:24;23.60;;;10.90;;
72920;SDS011;61064;51.654;5.476;2022-11-15T02:13:50;24.30;;;11.25;;
72920;SDS011;61064;51.654;5.476;2022-11-15T02:18:47;25.63;;;11.97;;
72920;SDS011;61064;51.654;5.476;2022-11-15T02:21:36;24.73;;;11.77;;
72920;SDS011;61064;51.654;5.476;2022-11-15T02:24:23;23.87;;;11.87;;
72920;SDS011;61064;51.654;5.476;2022-11-15T02:27:33;25.05;;;11.70;;
72920;SDS011;61064;51.654;5.476;2022-11-15T02:36:09;27.83;;;11.25;;
72920;SDS011;61064;51.654;5.476;2022-11-15T02:38:54;22.33;;;10.93;;
72920;SDS011;61064;51.654;5.476;2022-11-15T02:41:30;24.95;;;11.95;;
72920;SDS011;61064;51.654;5.476;2022-11-15T02:44:10;25.65;;;11.93;;
72920;SDS011;61064;51.654;5.476;2022-11-15T02:46:58;26.40;;;12.77;;
72920;SDS011;61064;51.654;5.476;2022-11-15T02:49:43;24.52;;;11.68;;
72920;SDS011;61064;51.654;5.476;2022-11-15T02:52:19;27.10;;;12.17;;
72920;SDS011;61064;51.654;5.476;2022-11-15T02:54:59;26.73;;;12.10;;
72920;SDS011;61064;51.654;5.476;2022-11-15T03:04:57;29.98;;;12.48;;
72920;SDS011;61064;51.654;5.476;2022-11-15T03:15:57;25.48;;;12.35;;
72920;SDS011;61064;51.654;5.476;2022-11-15T03:18:34;24.42;;;12.48;;
72920;SDS011;61064;51.654;5.476;2022-11-15T03:21:03;30.38;;;13.25;;
72920;SDS011;61064;51.654;5.476;2022-11-15T03:23:32;26.03;;;12.87;;
72920;SDS011;61064;51.654;5.476;2022-11-15T03:25:59;29.83;;;13.82;;
72920;SDS011;61064;51.654;5.476;2022-11-15T03:28:36;25.63;;;12.73;;
72920;SDS011;61064;51.654;5.476;2022-11-15T03:31:05;27.83;;;12.93;;
72920;SDS011;61064;51.654;5.476;2022-11-15T03:33:52;28.63;;;12.75;;
72920;SDS011;61064;51.654;5.476;2022-11-15T03:36:20;26.97;;;13.17;;
72920;SDS011;61064;51.654;5.476;2022-11-15T03:38:47;28.73;;;12.93;;
72920;SDS011;61064;51.654;5.476;2022-11-15T03:41:17;26.53;;;12.77;;
72920;SDS011;61064;51.654;5.476;2022-11-15T03:43:52;26.63;;;12.90;;
72920;SDS011;61064;51.654;5.476;2022-11-15T03:46:38;29.98;;;13.00;;
72920;SDS011;61064;51.654;5.476;2022-11-15T03:49:17;24.23;;;12.57;;
72920;SDS011;61064;51.654;5.476;2022-11-15T03:51:48;25.98;;;12.68;;
72920;SDS011;61064;51.654;5.476;2022-11-15T03:54:13;23.83;;;12.77;;
72920;SDS011;61064;51.654;5.476;2022-11-15T03:56:39;27.00;;;13.00;;
72920;SDS011;61064;51.654;5.476;2022-11-15T03:59:04;25.83;;;12.70;;
72920;SDS011;61064;51.654;5.476;2022-11-15T04:01:33;25.17;;;12.67;;
72920;SDS011;61064;51.654;5.476;2022-11-15T04:03:58;25.30;;;12.55;;
72920;SDS011;61064;51.654;5.476;2022-11-15T04:06:23;27.13;;;12.90;;
72920;SDS011;61064;51.654;5.476;2022-11-15T04:08:49;28.05;;;12.30;;
72920;SDS011;61064;51.654;5.476;2022-11-15T04:11:14;24.77;;;12.10;;
72920;SDS011;61064;51.654;5.476;2022-11-15T04:13:42;24.05;;;12.68;;
72920;SDS011;61064;51.654;5.476;2022-11-15T04:16:07;29.43;;;13.00;;
72920;SDS011;61064;51.654;5.476;2022-11-15T04:18:32;28.33;;;13.27;;
72920;SDS011;61064;51.654;5.476;2022-11-15T04:20:58;25.83;;;12.73;;
72920;SDS011;61064;51.654;5.476;2022-11-15T04:23:42;32.33;;;14.00;;
72920;SDS011;61064;51.654;5.476;2022-11-15T04:26:20;29.45;;;13.65;;
72920;SDS011;61064;51.654;5.476;2022-11-15T04:28:47;28.75;;;13.52;;
72920;SDS011;61064;51.654;5.476;2022-11-15T04:31:31;27.93;;;12.47;;
72920;SDS011;61064;51.654;5.476;2022-11-15T04:33:58;29.95;;;13.27;;
72920;SDS011;61064;51.654;5.476;2022-11-15T04:36:24;31.48;;;14.15;;
72920;SDS011;61064;51.654;5.476;2022-11-15T04:39:08;30.55;;;14.10;;
72920;SDS011;61064;51.654;5.476;2022-11-15T04:41:33;29.17;;;13.57;;
72920;SDS011;61064;51.654;5.476;2022-11-15T04:43:59;31.17;;;13.70;;
72920;SDS011;61064;51.654;5.476;2022-11-15T04:46:24;32.75;;;14.38;;
72920;SDS011;61064;51.654;5.476;2022-11-15T04:48:53;32.70;;;13.93;;
72920;SDS011;61064;51.654;5.476;2022-11-15T04:51:19;31.65;;;14.50;;
72920;SDS011;61064;51.654;5.476;2022-11-15T04:53:45;31.67;;;14.23;;
72920;SDS011;61064;51.654;5.476;2022-11-15T04:56:10;33.03;;;14.97;;
72920;SDS011;61064;51.654;5.476;2022-11-15T04:58:36;30.10;;;14.75;;
72920;SDS011;61064;51.654;5.476;2022-11-15T05:01:11;31.47;;;13.77;;
72920;SDS011;61064;51.654;5.476;2022-11-15T05:03:41;33.00;;;14.30;;
72920;SDS011;61064;51.654;5.476;2022-11-15T05:06:26;29.77;;;13.63;;
72920;SDS011;61064;51.654;5.476;2022-11-15T05:08:52;31.67;;;13.93;;
72920;SDS011;61064;51.654;5.476;2022-11-15T05:11:18;33.33;;;14.75;;
72920;SDS011;61064;51.654;5.476;2022-11-15T05:13:43;30.33;;;13.23;;
72920;SDS011;61064;51.654;5.476;2022-11-15T05:16:08;34.33;;;15.43;;
72920;SDS011;61064;51.654;5.476;2022-11-15T05:18:34;30.27;;;13.90;;
72920;SDS011;61064;51.654;5.476;2022-11-15T05:21:03;28.27;;;13.00;;
72920;SDS011;61064;51.654;5.476;2022-11-15T05:23:30;29.13;;;13.00;;
72920;SDS011;61064;51.654;5.476;2022-11-15T05:25:58;29.67;;;13.50;;
72920;SDS011;61064;51.654;5.476;2022-11-15T05:28:25;26.27;;;12.55;;
72920;SDS011;61064;51.654;5.476;2022-11-15T05:30:50;27.77;;;13.30;;
72920;SDS011;61064;51.654;5.476;2022-11-15T05:33:15;30.13;;;12.73;;
72920;SDS011;61064;51.654;5.476;2022-11-15T05:35:41;29.30;;;13.07;;
72920;SDS011;61064;51.654;5.476;2022-11-15T05:38:11;26.23;;;11.90;;
72920;SDS011;61064;51.654;5.476;2022-11-15T05:40:36;29.73;;;13.10;;
72920;SDS011;61064;51.654;5.476;2022-11-15T05:43:02;25.57;;;12.17;;
72920;SDS011;61064;51.654;5.476;2022-11-15T05:45:29;30.80;;;13.60;;
72920;SDS011;61064;51.654;5.476;2022-11-15T05:47:56;29.90;;;12.82;;
72920;SDS011;61064;51.654;5.476;2022-11-15T05:50:23;29.93;;;12.77;;
72920;SDS011;61064;51.654;5.476;2022-11-15T05:52:49;30.10;;;12.85;;
72920;SDS011;61064;51.654;5.476;2022-11-15T05:55:15;28.95;;;12.77;;
72920;SDS011;61064;51.654;5.476;2022-11-15T05:57:41;24.83;;;12.00;;
72920;SDS011;61064;51.654;5.476;2022-11-15T06:00:06;26.57;;;12.30;;
72920;SDS011;61064;51.654;5.476;2022-11-15T06:02:34;28.17;;;11.95;;
72920;SDS011;61064;51.654;5.476;2022-11-15T06:04:59;28.67;;;12.70;;
72920;SDS011;61064;51.654;5.476;2022-11-15T06:07:25;26.92;;;12.73;;
72920;SDS011;61064;51.654;5.476;2022-11-15T06:09:50;27.13;;;12.67;;
72920;SDS011;61064;51.654;5.476;2022-11-15T06:12:15;27.17;;;12.50;;
72920;SDS011;61064;51.654;5.476;2022-11-15T06:14:41;27.00;;;12.83;;
72920;SDS011;61064;51.654;5.476;2022-11-15T06:17:06;25.17;;;11.90;;
72920;SDS011;61064;51.654;5.476;2022-11-15T06:19:32;27.52;;;12.93;;
72920;SDS011;61064;51.654;5.476;2022-11-15T06:22:00;26.20;;;11.80;;
72920;SDS011;61064;51.654;5.476;2022-11-15T06:24:26;26.95;;;13.10;;
72920;SDS011;61064;51.654;5.476;2022-11-15T06:26:51;26.47;;;12.40;;
72920;SDS011;61064;51.654;5.476;2022-11-15T06:29:17;27.95;;;13.38;;
72920;SDS011;61064;51.654;5.476;2022-11-15T06:31:43;26.03;;;12.13;;
72920;SDS011;61064;51.654;5.476;2022-11-15T06:34:08;27.27;;;12.47;;
72920;SDS011;61064;51.654;5.476;2022-11-15T06:36:34;24.92;;;13.43;;
72920;SDS011;61064;51.654;5.476;2022-11-15T06:39:01;25.73;;;11.77;;
72920;SDS011;61064;51.654;5.476;2022-11-15T06:41:27;27.67;;;12.55;;
72920;SDS011;61064;51.654;5.476;2022-11-15T06:43:53;24.93;;;12.27;;
72920;SDS011;61064;51.654;5.476;2022-11-15T06:46:18;29.67;;;12.20;;
72920;SDS011;61064;51.654;5.476;2022-11-15T06:48:45;25.70;;;12.23;;
72920;SDS011;61064;51.654;5.476;2022-11-15T06:51:10;26.25;;;12.52;;
72920;SDS011;61064;51.654;5.476;2022-11-15T06:53:36;26.67;;;12.20;;
72920;SDS011;61064;51.654;5.476;2022-11-15T06:56:04;26.27;;;12.67;;
72920;SDS011;61064;51.654;5.476;2022-11-15T06:58:32;30.52;;;12.35;;
72920;SDS011;61064;51.654;5.476;2022-11-15T07:00:58;22.05;;;11.52;;
72920;SDS011;61064;51.654;5.476;2022-11-15T07:03:28;25.47;;;11.77;;
72920;SDS011;61064;51.654;5.476;2022-11-15T07:05:54;24.08;;;11.73;;
72920;SDS011;61064;51.654;5.476;2022-11-15T07:08:21;27.00;;;12.13;;
72920;SDS011;61064;51.654;5.476;2022-11-15T07:10:47;26.07;;;10.97;;
72920;SDS011;61064;51.654;5.476;2022-11-15T07:13:12;29.48;;;12.30;;
72920;SDS011;61064;51.654;5.476;2022-11-15T07:15:38;20.40;;;10.53;;
72920;SDS011;61064;51.654;5.476;2022-11-15T07:18:03;25.50;;;10.70;;
72920;SDS011;61064;51.654;5.476;2022-11-15T07:20:29;24.23;;;11.43;;
72920;SDS011;61064;51.654;5.476;2022-11-15T07:23:01;23.23;;;11.03;;
72920;SDS011;61064;51.654;5.476;2022-11-15T07:25:29;27.02;;;11.23;;
72920;SDS011;61064;51.654;5.476;2022-11-15T07:27:58;24.30;;;11.45;;
72920;SDS011;61064;51.654;5.476;2022-11-15T07:30:24;21.95;;;10.13;;
72920;SDS011;61064;51.654;5.476;2022-11-15T07:32:58;21.95;;;10.88;;
72920;SDS011;61064;51.654;5.476;2022-11-15T07:35:25;20.23;;;9.70;;
72920;SDS011;61064;51.654;5.476;2022-11-15T07:40:21;23.45;;;10.55;;
72920;SDS011;61064;51.654;5.476;2022-11-15T07:42:46;21.27;;;10.13;;
72920;SDS011;61064;51.654;5.476;2022-11-15T07:45:18;21.40;;;10.15;;
72920;SDS011;61064;51.654;5.476;2022-11-15T07:47:48;22.57;;;10.30;;
72920;SDS011;61064;51.654;5.476;2022-11-15T07:50:14;21.73;;;9.73;;
72920;SDS011;61064;51.654;5.476;2022-11-15T07:52:39;21.60;;;9.60;;
72920;SDS011;61064;51.654;5.476;2022-11-15T07:55:05;21.13;;;9.80;;
72920;SDS011;61064;51.654;5.476;2022-11-15T07:57:31;20.60;;;9.03;;
72920;SDS011;61064;51.654;5.476;2022-11-15T07:59:56;20.58;;;9.73;;
72920;SDS011;61064;51.654;5.476;2022-11-15T08:02:21;17.03;;;8.70;;
72920;SDS011;61064;51.654;5.476;2022-11-15T08:04:47;17.93;;;8.53;;
72920;SDS011;61064;51.654;5.476;2022-11-15T08:07:12;19.23;;;8.80;;
72920;SDS011;61064;51.654;5.476;2022-11-15T08:09:38;17.83;;;8.87;;
72920;SDS011;61064;51.654;5.476;2022-11-15T08:12:03;17.17;;;8.23;;
72920;SDS011;61064;51.654;5.476;2022-11-15T08:14:29;19.00;;;8.30;;
72920;SDS011;61064;51.654;5.476;2022-11-15T08:16:54;18.57;;;8.17;;
72920;SDS011;61064;51.654;5.476;2022-11-15T08:19:20;16.23;;;8.00;;
72920;SDS011;61064;51.654;5.476;2022-11-15T08:21:45;18.17;;;7.97;;
72920;SDS011;61064;51.654;5.476;2022-11-15T08:24:10;18.47;;;8.77;;
72920;SDS011;61064;51.654;5.476;2022-11-15T08:26:36;17.73;;;8.33;;
72920;SDS011;61064;51.654;5.476;2022-11-15T08:29:02;18.13;;;8.25;;
72920;SDS011;61064;51.654;5.476;2022-11-15T08:31:27;16.57;;;7.50;;
72920;SDS011;61064;51.654;5.476;2022-11-15T08:33:53;17.52;;;8.00;;
72920;SDS011;61064;51.654;5.476;2022-11-15T08:36:19;19.03;;;8.80;;
72920;SDS011;61064;51.654;5.476;2022-11-15T08:38:44;18.53;;;8.00;;
72920;SDS011;61064;51.654;5.476;2022-11-15T08:41:11;15.25;;;7.43;;
72920;SDS011;61064;51.654;5.476;2022-11-15T08:43:39;18.40;;;7.40;;
72920;SDS011;61064;51.654;5.476;2022-11-15T08:46:04;14.95;;;7.07;;
72920;SDS011;61064;51.654;5.476;2022-11-15T08:48:30;15.17;;;6.80;;
72920;SDS011;61064;51.654;5.476;2022-11-15T08:50:56;14.43;;;7.10;;
72920;SDS011;61064;51.654;5.476;2022-11-15T08:53:22;16.42;;;6.53;;
72920;SDS011;61064;51.654;5.476;2022-11-15T08:55:47;13.10;;;6.30;;
72920;SDS011;61064;51.654;5.476;2022-11-15T08:58:12;12.77;;;5.93;;
72920;SDS011;61064;51.654;5.476;2022-11-15T09:00:38;13.07;;;5.70;;
72920;SDS011;61064;51.654;5.476;2022-11-15T09:03:06;12.17;;;5.70;;
72920;SDS011;61064;51.654;5.476;2022-11-15T09:05:35;14.90;;;5.82;;
72920;SDS011;61064;51.654;5.476;2022-11-15T09:08:02;14.52;;;6.00;;
72920;SDS011;61064;51.654;5.476;2022-11-15T09:10:27;12.00;;;5.50;;
72920;SDS011;61064;51.654;5.476;2022-11-15T09:12:52;12.00;;;5.40;;
72920;SDS011;61064;51.654;5.476;2022-11-15T09:15:18;11.30;;;5.20;;
72920;SDS011;61064;51.654;5.476;2022-11-15T09:17:44;10.30;;;5.15;;
72920;SDS011;61064;51.654;5.476;2022-11-15T09:20:10;12.53;;;4.60;;
72920;SDS011;61064;51.654;5.476;2022-11-15T09:22:35;10.70;;;5.43;;
72920;SDS011;61064;51.654;5.476;2022-11-15T09:25:02;10.43;;;4.90;;
72920;SDS011;61064;51.654;5.476;2022-11-15T09:27:28;9.70;;;4.18;;
72920;SDS011;61064;51.654;5.476;2022-11-15T09:29:54;11.93;;;3.90;;
72920;SDS011;61064;51.654;5.476;2022-11-15T09:32:20;11.80;;;3.93;;
72920;SDS011;61064;51.654;5.476;2022-11-15T09:34:47;9.82;;;4.18;;
72920;SDS011;61064;51.654;5.476;2022-11-15T09:37:12;8.60;;;3.50;;
72920;SDS011;61064;51.654;5.476;2022-11-15T09:39:37;10.63;;;4.13;;
72920;SDS011;61064;51.654;5.476;2022-11-15T09:42:12;9.60;;;3.87;;
72920;SDS011;61064;51.654;5.476;2022-11-15T09:45:12;8.25;;;3.85;;
72920;SDS011;61064;51.654;5.476;2022-11-15T09:47:51;10.45;;;4.55;;
72920;SDS011;61064;51.654;5.476;2022-11-15T09:50:48;8.45;;;4.38;;
72920;SDS011;61064;51.654;5.476;2022-11-15T09:53:34;11.55;;;5.43;;
72920;SDS011;61064;51.654;5.476;2022-11-15T09:56:13;9.10;;;3.77;;
72920;SDS011;61064;51.654;5.476;2022-11-15T10:04:01;10.68;;;3.65;;
72920;SDS011;61064;51.654;5.476;2022-11-15T10:06:26;7.67;;;2.70;;
72920;SDS011;61064;51.654;5.476;2022-11-15T10:09:01;7.53;;;2.60;;
72920;SDS011;61064;51.654;5.476;2022-11-15T10:11:33;8.27;;;2.45;;
72920;SDS011;61064;51.654;5.476;2022-11-15T10:14:02;7.97;;;2.33;;
72920;SDS011;61064;51.654;5.476;2022-11-15T10:16:44;7.75;;;2.20;;
72920;SDS011;61064;51.654;5.476;2022-11-15T10:24:43;6.45;;;1.55;;
72920;SDS011;61064;51.654;5.476;2022-11-15T10:27:17;7.53;;;1.70;;
72920;SDS011;61064;51.654;5.476;2022-11-15T10:29:47;6.97;;;1.08;;
72920;SDS011;61064;51.654;5.476;2022-11-15T10:32:14;6.07;;;1.23;;
72920;SDS011;61064;51.654;5.476;2022-11-15T10:34:42;8.73;;;1.13;;
72920;SDS011;61064;51.654;5.476;2022-11-15T10:37:08;5.30;;;1.00;;
72920;SDS011;61064;51.654;5.476;2022-11-15T10:39:33;4.20;;;0.93;;
72920;SDS011;61064;51.654;5.476;2022-11-15T10:42:14;7.43;;;1.10;;
72920;SDS011;61064;51.654;5.476;2022-11-15T10:44:50;6.68;;;0.95;;
72920;SDS011;61064;51.654;5.476;2022-11-15T10:49:55;5.95;;;0.90;;
72920;SDS011;61064;51.654;5.476;2022-11-15T10:52:34;6.78;;;0.90;;
72920;SDS011;61064;51.654;5.476;2022-11-15T10:57:47;6.70;;;0.90;;
72920;SDS011;61064;51.654;5.476;2022-11-15T11:08:31;6.22;;;0.68;;
72920;SDS011;61064;51.654;5.476;2022-11-15T11:10:56;5.53;;;0.90;;
72920;SDS011;61064;51.654;5.476;2022-11-15T11:27:36;8.45;;;1.00;;
72920;SDS011;61064;51.654;5.476;2022-11-15T11:30:34;4.97;;;0.77;;
72920;SDS011;61064;51.654;5.476;2022-11-15T11:33:27;5.07;;;0.77;;
72920;SDS011;61064;51.654;5.476;2022-11-15T11:36:11;4.68;;;0.70;;
72920;SDS011;61064;51.654;5.476;2022-11-15T11:48:23;7.32;;;0.70;;
72920;SDS011;61064;51.654;5.476;2022-11-15T11:50:39;7.63;;;0.90;;
72920;SDS011;61064;51.654;5.476;2022-11-15T11:56:08;4.47;;;0.60;;
72920;SDS011;61064;51.654;5.476;2022-11-15T11:58:49;7.00;;;0.80;;
72920;SDS011;61064;51.654;5.476;2022-11-15T12:06:29;7.07;;;0.80;;
72920;SDS011;61064;51.654;5.476;2022-11-15T12:09:16;8.00;;;0.90;;
72920;SDS011;61064;51.654;5.476;2022-11-15T12:14:45;5.97;;;0.90;;
72920;SDS011;61064;51.654;5.476;2022-11-15T12:17:13;6.07;;;0.70;;
72920;SDS011;61064;51.654;5.476;2022-11-15T12:19:43;4.77;;;0.80;;
72920;SDS011;61064;51.654;5.476;2022-11-15T12:22:13;5.88;;;1.10;;
72920;SDS011;61064;51.654;5.476;2022-11-15T12:27:39;6.47;;;1.03;;
72920;SDS011;61064;51.654;5.476;2022-11-15T12:30:19;7.63;;;0.80;;
72920;SDS011;61064;51.654;5.476;2022-11-15T12:32:57;6.78;;;0.90;;
72920;SDS011;61064;51.654;5.476;2022-11-15T12:35:36;7.28;;;0.88;;
72920;SDS011;61064;51.654;5.476;2022-11-15T12:38:10;6.40;;;1.10;;
72920;SDS011;61064;51.654;5.476;2022-11-15T12:40:38;7.23;;;0.90;;
72920;SDS011;61064;51.654;5.476;2022-11-15T12:46:09;6.53;;;1.10;;
72920;SDS011;61064;51.654;5.476;2022-11-15T12:48:46;7.30;;;1.10;;
72920;SDS011;61064;51.654;5.476;2022-11-15T12:51:14;7.05;;;0.90;;
72920;SDS011;61064;51.654;5.476;2022-11-15T12:53:39;5.43;;;0.70;;
72920;SDS011;61064;51.654;5.476;2022-11-15T12:56:09;5.50;;;0.80;;
72920;SDS011;61064;51.654;5.476;2022-11-15T13:04:34;4.70;;;0.70;;
72920;SDS011;61064;51.654;5.476;2022-11-15T13:07:01;4.93;;;0.57;;
72920;SDS011;61064;51.654;5.476;2022-11-15T13:11:54;6.43;;;0.70;;
72920;SDS011;61064;51.654;5.476;2022-11-15T13:17:26;6.53;;;0.60;;
72920;SDS011;61064;51.654;5.476;2022-11-15T13:22:42;4.80;;;0.60;;
72920;SDS011;61064;51.654;5.476;2022-11-15T13:28:11;5.90;;;0.60;;
72920;SDS011;61064;51.654;5.476;2022-11-15T13:33:14;5.20;;;0.50;;
72920;SDS011;61064;51.654;5.476;2022-11-15T13:35:45;4.63;;;0.50;;
72920;SDS011;61064;51.654;5.476;2022-11-15T13:38:25;7.07;;;0.98;;
72920;SDS011;61064;51.654;5.476;2022-11-15T13:40:55;6.30;;;0.80;;
72920;SDS011;61064;51.654;5.476;2022-11-15T13:46:30;7.70;;;0.85;;
72920;SDS011;61064;51.654;5.476;2022-11-15T13:48:43;6.43;;;1.05;;
72920;SDS011;61064;51.654;5.476;2022-11-15T13:51:30;7.47;;;1.20;;
72920;SDS011;61064;51.654;5.476;2022-11-15T13:54:18;4.80;;;0.77;;
72920;SDS011;61064;51.654;5.476;2022-11-15T13:56:52;7.10;;;0.98;;
72920;SDS011;61064;51.654;5.476;2022-11-15T13:59:26;4.68;;;0.77;;
72920;SDS011;61064;51.654;5.476;2022-11-15T14:01:55;6.85;;;0.82;;
72920;SDS011;61064;51.654;5.476;2022-11-15T14:04:25;6.40;;;0.93;;
72920;SDS011;61064;51.654;5.476;2022-11-15T14:06:58;9.00;;;0.90;;
72920;SDS011;61064;51.654;5.476;2022-11-15T14:09:29;5.85;;;0.80;;
72920;SDS011;61064;51.654;5.476;2022-11-15T14:12:00;7.05;;;0.82;;
72920;SDS011;61064;51.654;5.476;2022-11-15T14:14:28;5.50;;;0.70;;
72920;SDS011;61064;51.654;5.476;2022-11-15T14:16:59;7.22;;;1.25;;
72920;SDS011;61064;51.654;5.476;2022-11-15T14:22:10;5.32;;;0.77;;
72920;SDS011;61064;51.654;5.476;2022-11-15T14:28:31;5.50;;;0.70;;
72920;SDS011;61064;51.654;5.476;2022-11-15T14:30:55;5.50;;;0.80;;
72920;SDS011;61064;51.654;5.476;2022-11-15T14:33:23;6.70;;;0.90;;
72920;SDS011;61064;51.654;5.476;2022-11-15T14:35:54;6.28;;;0.85;;
72920;SDS011;61064;51.654;5.476;2022-11-15T14:38:22;6.40;;;0.87;;
72920;SDS011;61064;51.654;5.476;2022-11-15T14:40:49;5.65;;;0.90;;
72920;SDS011;61064;51.654;5.476;2022-11-15T14:43:14;5.10;;;0.80;;
72920;SDS011;61064;51.654;5.476;2022-11-15T14:45:40;5.70;;;0.83;;
72920;SDS011;61064;51.654;5.476;2022-11-15T14:48:06;7.43;;;0.90;;
72920;SDS011;61064;51.654;5.476;2022-11-15T14:50:32;4.80;;;0.73;;
72920;SDS011;61064;51.654;5.476;2022-11-15T14:52:58;7.30;;;0.90;;
72920;SDS011;61064;51.654;5.476;2022-11-15T14:55:28;4.80;;;0.55;;
72920;SDS011;61064;51.654;5.476;2022-11-15T14:58:00;6.70;;;0.80;;
72920;SDS011;61064;51.654;5.476;2022-11-15T15:00:32;4.35;;;0.77;;
72920;SDS011;61064;51.654;5.476;2022-11-15T15:03:02;5.18;;;0.70;;
72920;SDS011;61064;51.654;5.476;2022-11-15T15:08:05;5.43;;;1.00;;
72920;SDS011;61064;51.654;5.476;2022-11-15T15:10:32;6.87;;;1.07;;
72920;SDS011;61064;51.654;5.476;2022-11-15T15:13:03;4.20;;;0.80;;
72920;SDS011;61064;51.654;5.476;2022-11-15T15:15:34;6.75;;;0.80;;
72920;SDS011;61064;51.654;5.476;2022-11-15T15:18:01;6.07;;;0.90;;
72920;SDS011;61064;51.654;5.476;2022-11-15T15:20:28;5.18;;;0.90;;
72920;SDS011;61064;51.654;5.476;2022-11-15T15:22:54;5.93;;;0.90;;
72920;SDS011;61064;51.654;5.476;2022-11-15T15:27:54;6.97;;;1.00;;
72920;SDS011;61064;51.654;5.476;2022-11-15T15:30:20;5.40;;;0.80;;
72920;SDS011;61064;51.654;5.476;2022-11-15T15:32:47;6.00;;;1.10;;
72920;SDS011;61064;51.654;5.476;2022-11-15T15:35:13;5.45;;;1.10;;
72920;SDS011;61064;51.654;5.476;2022-11-15T15:37:40;6.60;;;1.13;;
72920;SDS011;61064;51.654;5.476;2022-11-15T15:40:10;7.50;;;1.17;;
72920;SDS011;61064;51.654;5.476;2022-11-15T15:42:39;6.88;;;1.10;;
72920;SDS011;61064;51.654;5.476;2022-11-15T15:45:05;5.57;;;0.90;;
72920;SDS011;61064;51.654;5.476;2022-11-15T15:47:31;7.38;;;1.00;;
72920;SDS011;61064;51.654;5.476;2022-11-15T15:49:56;5.30;;;0.90;;
72920;SDS011;61064;51.654;5.476;2022-11-15T15:52:22;5.97;;;0.70;;
72920;SDS011;61064;51.654;5.476;2022-11-15T15:54:47;6.20;;;0.90;;
72920;SDS011;61064;51.654;5.476;2022-11-15T15:57:13;6.67;;;0.90;;
72920;SDS011;61064;51.654;5.476;2022-11-15T15:59:39;7.38;;;1.17;;
72920;SDS011;61064;51.654;5.476;2022-11-15T16:02:04;6.50;;;1.23;;
72920;SDS011;61064;51.654;5.476;2022-11-15T16:04:30;7.60;;;1.15;;
72920;SDS011;61064;51.654;5.476;2022-11-15T16:06:59;5.03;;;0.90;;
72920;SDS011;61064;51.654;5.476;2022-11-15T16:09:25;7.30;;;1.00;;
72920;SDS011;61064;51.654;5.476;2022-11-15T16:12:09;4.90;;;0.90;;
72920;SDS011;61064;51.654;5.476;2022-11-15T16:14:35;5.67;;;0.97;;
72920;SDS011;61064;51.654;5.476;2022-11-15T16:17:00;4.73;;;0.90;;
72920;SDS011;61064;51.654;5.476;2022-11-15T16:19:26;5.20;;;1.00;;
72920;SDS011;61064;51.654;5.476;2022-11-15T16:21:52;7.93;;;1.10;;
72920;SDS011;61064;51.654;5.476;2022-11-15T16:24:18;9.63;;;1.13;;
72920;SDS011;61064;51.654;5.476;2022-11-15T16:26:44;6.72;;;1.90;;
72920;SDS011;61064;51.654;5.476;2022-11-15T16:29:11;9.25;;;1.15;;
72920;SDS011;61064;51.654;5.476;2022-11-15T16:31:37;5.60;;;1.20;;
72920;SDS011;61064;51.654;5.476;2022-11-15T16:34:03;9.57;;;1.30;;
72920;SDS011;61064;51.654;5.476;2022-11-15T16:36:30;8.97;;;1.50;;
72920;SDS011;61064;51.654;5.476;2022-11-15T16:38:57;8.32;;;1.63;;
72920;SDS011;61064;51.654;5.476;2022-11-15T16:41:23;7.07;;;1.42;;
72920;SDS011;61064;51.654;5.476;2022-11-15T16:43:49;8.40;;;1.57;;
72920;SDS011;61064;51.654;5.476;2022-11-15T16:46:21;9.03;;;1.57;;
72920;SDS011;61064;51.654;5.476;2022-11-15T16:48:48;8.68;;;1.70;;
72920;SDS011;61064;51.654;5.476;2022-11-15T16:51:14;6.87;;;1.70;;